East Weymouth, Massachusetts
Current Conditions -  °F | °C
As of 10:54 PM on Wednesday 17 Dec 2014 (Local Time) from KBOS Reporting Station
Overcast Overcast  
Wind Chill: 35°   Ceiling: 6500
Heat Index: 42°   Visibility: 10mi
Dew Point: 34°   Wind: 14mph
Humidity: 73%   Direction: 280°W
Pressure: 29.73"   Gusts: 22mph
Location:  42.21°N, 70.9313°W
Report Text: KBOS 180354Z 28012G19KT 10SM SCT045 OVC065 06/01 A2973 RMK AO2 SLP066 T00560011
Loading
Personal Weather Stations






























Interactive Weather Map New forecast layout! Learn more

10-Day Weather Forecast

Advertisements
Track Severe Weather on mobile